Time;durP1;ratioP1;P1;durP2;ratioP2;P2;SDS_P1;SDS_P2;PMS_P1;PMS_P2;Temp;Humidity;BMP_temperature;BMP_pressure;BME280_temperature;BME280_humidity;BME280_pressure;Samples;Min_cycle;Max_cycle;Signal;HPM_P1;HPM_P2
2023/10/01 00:01:43;;;;;;;2.30;1.20;;;15.20;85.60;;;;;;5058559;28;20054;-18
2023/10/01 00:04:09;;;;;;;2.15;1.15;;;15.40;80.70;;;;;;5037294;28;20830;-17
2023/10/01 00:06:36;;;;;;;2.15;1.23;;;14.80;84.40;;;;;;5071496;28;20032;-17
2023/10/01 00:09:05;;;;;;;2.87;1.23;;;15.40;80.90;;;;;;5058659;28;20311;-17
2023/10/01 00:11:32;;;;;;;3.58;1.27;;;15.50;81.00;;;;;;5060239;28;20099;-17
2023/10/01 00:14:06;;;;;;;3.75;1.30;;;15.50;81.10;;;;;;5023483;28;21237;-17
2023/10/01 00:16:32;;;;;;;2.30;1.20;;;15.50;81.20;;;;;;5059422;28;20019;-17
2023/10/01 00:18:59;;;;;;;3.40;1.33;;;15.40;81.10;;;;;;5068651;28;20080;-17
2023/10/01 00:21:27;;;;;;;2.40;1.30;;;15.50;81.40;;;;;;5042788;28;20028;-17
2023/10/01 00:23:54;;;;;;;2.40;1.25;;;15.50;81.50;;;;;;5050949;28;20056;-17
2023/10/01 00:26:20;;;;;;;2.42;1.50;;;15.50;81.50;;;;;;5062323;28;20342;-17
2023/10/01 00:28:46;;;;;;;2.13;1.20;;;15.40;81.60;;;;;;5049252;28;20906;-17
2023/10/01 00:31:13;;;;;;;2.00;1.20;;;15.40;81.80;;;;;;5035468;28;20481;-17
2023/10/01 00:33:41;;;;;;;2.27;1.20;;;12.50;86.20;;;;;;5058573;28;20436;-17
2023/10/01 00:36:07;;;;;;;2.85;1.20;;;15.40;81.90;;;;;;5059071;28;20503;-17
2023/10/01 00:38:33;;;;;;;2.13;1.10;;;15.40;81.90;;;;;;5070854;28;20063;-17
2023/10/01 00:40:59;;;;;;;4.13;1.60;;;15.40;82.10;;;;;;5064127;28;20151;-17
2023/10/01 00:43:25;;;;;;;2.93;1.40;;;15.40;82.00;;;;;;5071424;28;20073;-17
2023/10/01 00:45:52;;;;;;;2.97;1.30;;;15.40;82.20;;;;;;5025972;28;20066;-17
2023/10/01 00:48:22;;;;;;;2.78;1.30;;;15.30;82.10;;;;;;5070489;28;20028;-17
2023/10/01 00:50:49;;;;;;;1.60;1.10;;;15.30;82.20;;;;;;5044821;28;20028;-17
2023/10/01 00:53:15;;;;;;;2.00;1.30;;;15.30;82.40;;;;;;5050204;28;20418;-16
2023/10/01 00:55:41;;;;;;;2.08;1.10;;;15.30;82.40;;;;;;5058452;28;20027;-17
2023/10/01 00:58:10;;;;;;;2.63;1.23;;;15.30;82.50;;;;;;5062570;28;20039;-16
2023/10/01 01:00:37;;;;;;;2.15;1.40;;;15.30;82.60;;;;;;5034598;28;20418;-16
2023/10/01 01:03:09;;;;;;;1.97;1.20;;;15.20;82.60;;;;;;5043244;28;20282;-16
2023/10/01 01:05:37;;;;;;;2.25;1.13;;;15.20;82.70;;;;;;5069595;28;20107;-17
2023/10/01 01:08:55;;;;;;;2.80;1.15;;;15.20;82.70;;;;;;5052548;28;20243;-17
2023/10/01 01:11:01;;;;;;;2.30;1.05;;;14.90;86.60;;;;;;5053185;28;20052;-17
2023/10/01 01:13:33;;;;;;;2.63;1.00;;;15.20;82.70;;;;;;5039626;28;20059;-16
2023/10/01 01:16:00;;;;;;;2.38;1.38;;;15.20;82.90;;;;;;5022964;28;20114;-17
2023/10/01 01:18:26;;;;;;;2.25;1.00;;;15.20;82.80;;;;;;5043771;28;20123;-16
2023/10/01 01:21:05;;;;;;;2.58;1.40;;;15.20;82.90;;;;;;5052224;28;20036;-17
2023/10/01 01:23:31;;;;;;;2.25;1.25;;;15.20;83.00;;;;;;5058061;28;20402;-17
2023/10/01 01:25:57;;;;;;;2.57;1.40;;;15.20;83.00;;;;;;5047224;28;20020;-17
2023/10/01 01:28:27;;;;;;;2.67;1.20;;;15.20;83.10;;;;;;5039533;28;20025;-17
2023/10/01 01:30:58;;;;;;;2.53;1.20;;;15.20;83.20;;;;;;5041916;28;20028;-17
2023/10/01 01:33:31;;;;;;;1.80;1.13;;;15.20;83.70;;;;;;5056568;28;20064;-17
2023/10/01 01:36:04;;;;;;;3.33;1.60;;;15.20;83.40;;;;;;5055850;28;20062;-17
2023/10/01 01:38:31;;;;;;;2.30;1.10;;;15.20;84.10;;;;;;5055507;28;20021;-16
2023/10/01 01:40:57;;;;;;;1.90;1.20;;;15.20;83.50;;;;;;5059719;28;20275;-16
2023/10/01 01:43:23;;;;;;;2.15;1.35;;;15.10;83.40;;;;;;5047286;28;20448;-17
2023/10/01 01:45:56;;;;;;;2.70;1.23;;;15.10;83.40;;;;;;5055766;28;20512;-17
2023/10/01 01:48:31;;;;;;;2.20;1.20;;;15.10;83.90;;;;;;5021997;28;20039;-16
2023/10/01 01:50:58;;;;;;;2.00;1.20;;;15.10;83.90;;;;;;5053346;28;20032;-16
2023/10/01 01:53:34;;;;;;;2.78;1.30;;;15.10;83.70;;;;;;5073672;28;20680;-16
2023/10/01 01:56:11;;;;;;;2.38;1.10;;;15.10;84.10;;;;;;5035803;28;20033;-17
2023/10/01 01:58:39;;;;;;;2.13;1.20;;;15.10;84.30;;;;;;5062500;28;20028;-17
2023/10/01 02:01:17;;;;;;;1.98;1.15;;;15.00;84.00;;;;;;5049616;28;20126;-16
2023/10/01 02:03:46;;;;;;;2.53;1.08;;;15.00;83.90;;;;;;5031881;28;20020;-17
2023/10/01 02:06:13;;;;;;;2.22;1.30;;;15.00;84.10;;;;;;5035593;28;20043;-17
2023/10/01 02:08:57;;;;;;;3.22;1.30;;;15.00;84.00;;;;;;5039631;28;20025;-17
2023/10/01 02:11:23;;;;;;;3.00;1.33;;;15.00;84.40;;;;;;5033860;28;20028;-17
2023/10/01 02:13:54;;;;;;;2.42;1.27;;;15.00;84.10;;;;;;5048106;28;20447;-16
2023/10/01 02:21:42;;;;;;;2.88;1.60;;;15.00;85.70;;;;;;5054954;28;20447;-16
2023/10/01 02:24:19;;;;;;;2.93;1.40;;;15.00;84.40;;;;;;5058609;28;20044;-17
2023/10/01 02:26:46;;;;;;;2.25;1.10;;;15.00;84.70;;;;;;5033712;28;20045;-16
2023/10/01 02:29:13;;;;;;;3.28;1.45;;;15.00;84.50;;;;;;5050186;28;20081;-16
2023/10/01 02:31:47;;;;;;;2.58;1.13;;;15.00;84.50;;;;;;5031598;28;20032;-16
2023/10/01 02:34:14;;;;;;;2.75;1.30;;;15.00;84.60;;;;;;5015016;28;20024;-16
2023/10/01 02:36:42;;;;;;;2.57;1.23;;;15.00;84.50;;;;;;5038776;28;20033;-16
2023/10/01 02:39:21;;;;;;;3.78;1.20;;;15.00;84.60;;;;;;5042329;28;20490;-16
2023/10/01 02:42:09;;;;;;;1.83;1.10;;;15.00;84.70;;;;;;5053831;28;20395;-16
2023/10/01 02:44:47;;;;;;;2.22;1.15;;;15.00;84.80;;;;;;5061001;28;20225;-16
2023/10/01 02:47:16;;;;;;;1.85;1.10;;;14.90;84.70;;;;;;5036556;28;20032;-16
2023/10/01 02:49:49;;;;;;;2.80;1.30;;;15.00;84.70;;;;;;5070493;28;20028;-16
2023/10/01 02:52:39;;;;;;;1.85;1.08;;;15.00;84.80;;;;;;5050885;28;20031;-16
2023/10/01 02:55:17;;;;;;;4.47;1.27;;;15.00;85.50;;;;;;5069928;28;20043;-17
2023/10/01 02:57:44;;;;;;;3.25;1.30;;;15.00;84.90;;;;;;5038112;28;20060;-16
2023/10/01 03:02:51;;;;;;;3.43;1.43;;;15.00;85.00;;;;;;5036285;28;20055;-16
2023/10/01 03:05:18;;;;;;;2.42;1.23;;;13.90;89.10;;;;;;5071622;28;20031;-16
2023/10/01 03:07:50;;;;;;;2.40;1.30;;;15.00;85.90;;;;;;5060930;28;20020;-16
2023/10/01 03:10:25;;;;;;;2.30;1.30;;;15.00;85.20;;;;;;5063217;28;20108;-16
2023/10/01 03:12:53;;;;;;;3.47;1.35;;;15.00;85.30;;;;;;5053902;28;20066;-16
2023/10/01 03:15:26;;;;;;;2.67;1.17;;;15.00;85.50;;;;;;5071513;28;20265;-16
2023/10/01 03:17:57;;;;;;;2.40;1.33;;;15.00;85.40;;;;;;5046587;28;20028;-16
2023/10/01 03:23:13;;;;;;;2.80;1.30;;;15.00;86.20;;;;;;5056487;28;20048;-16
2023/10/01 03:25:55;;;;;;;2.53;1.38;;;15.00;85.90;;;;;;5058178;28;20020;-16
2023/10/01 03:28:28;;;;;;;4.00;1.50;;;15.00;85.70;;;;;;5025522;28;20365;-16
2023/10/01 03:31:08;;;;;;;4.45;1.55;;;15.00;85.70;;;;;;5063227;28;20035;-16
2023/10/01 03:33:38;;;;;;;2.95;1.27;;;15.00;86.10;;;;;;5047697;28;20872;-16
2023/10/01 03:36:16;;;;;;;3.30;1.40;;;15.00;86.10;;;;;;5024346;28;20501;-16
2023/10/01 03:38:47;;;;;;;2.63;1.40;;;14.90;86.70;;;;;;5052522;28;20035;-17
2023/10/01 03:41:23;;;;;;;3.60;1.37;;;14.90;85.90;;;;;;5053947;28;20032;-16
2023/10/01 03:43:51;;;;;;;2.28;1.23;;;14.90;86.00;;;;;;5050381;28;20032;-16
2023/10/01 03:46:26;;;;;;;2.28;1.30;;;14.90;86.10;;;;;;5024954;28;20368;-16
2023/10/01 03:51:58;;;;;;;2.40;1.38;;;14.80;86.10;;;;;;5039768;28;20028;-16
2023/10/01 03:57:16;;;;;;;3.50;1.40;;;14.80;86.30;;;;;;5057340;28;20037;-17
2023/10/01 03:59:51;;;;;;;3.03;1.40;;;14.70;86.30;;;;;;5049694;28;20032;-16
2023/10/01 04:02:27;;;;;;;2.28;1.13;;;14.70;86.30;;;;;;5032576;28;20035;-16
2023/10/01 04:04:57;;;;;;;2.38;1.35;;;14.70;86.70;;;;;;5043431;28;20429;-16
2023/10/01 04:07:40;;;;;;;2.23;1.40;;;14.70;86.30;;;;;;5022024;28;20020;-16
2023/10/01 04:10:13;;;;;;;2.65;1.33;;;14.70;86.70;;;;;;5049865;28;20036;-16
2023/10/01 04:12:44;;;;;;;3.20;1.55;;;14.70;86.40;;;;;;5061314;28;20024;-16
2023/10/01 04:15:22;;;;;;;2.38;1.27;;;14.70;86.60;;;;;;5039738;28;20150;-16
2023/10/01 04:18:09;;;;;;;2.72;1.25;;;14.60;86.40;;;;;;5061536;28;20020;-16
2023/10/01 04:20:33;;;;;;;2.47;1.40;;;14.70;86.40;;;;;;5062757;28;20875;-16
2023/10/01 04:23:04;;;;;;;2.22;1.20;;;14.60;86.30;;;;;;5017417;28;20043;-16
2023/10/01 04:25:38;;;;;;;2.53;1.17;;;14.60;86.40;;;;;;5048128;28;20028;-16
2023/10/01 04:28:08;;;;;;;2.08;1.20;;;14.60;87.10;;;;;;5051541;28;20077;-16
2023/10/01 04:30:34;;;;;;;3.30;1.23;;;14.60;86.50;;;;;;5050615;28;20582;-16
2023/10/01 04:33:16;;;;;;;3.33;1.40;;;14.60;86.60;;;;;;5046587;28;20158;-16
2023/10/01 04:35:55;;;;;;;3.03;1.25;;;13.70;90.00;;;;;;5046494;28;20064;-17
2023/10/01 04:38:32;;;;;;;2.92;1.50;;;14.50;86.80;;;;;;5035118;28;20469;-17
2023/10/01 04:40:59;;;;;;;2.95;1.33;;;14.50;86.80;;;;;;5045653;28;20032;-17
2023/10/01 04:43:34;;;;;;;2.57;1.20;;;14.50;86.60;;;;;;5034922;28;20382;-17
2023/10/01 04:46:01;;;;;;;3.15;1.20;;;14.50;86.60;;;;;;5071151;28;20509;-17
2023/10/01 04:48:26;;;;;;;2.97;1.30;;;14.40;86.50;;;;;;5062899;28;20237;-17
2023/10/01 04:50:53;;;;;;;3.85;1.55;;;14.40;86.60;;;;;;5071096;28;20020;-17
2023/10/01 04:53:28;;;;;;;4.60;1.85;;;14.40;86.70;;;;;;5043459;28;20201;-17
2023/10/01 04:56:01;;;;;;;2.73;1.20;;;14.40;87.40;;;;;;5068921;28;20066;-17
2023/10/01 04:58:32;;;;;;;2.63;1.20;;;14.30;87.00;;;;;;5022679;28;20583;-17
2023/10/01 05:00:59;;;;;;;2.63;1.23;;;14.30;87.00;;;;;;5039090;28;20501;-17
2023/10/01 05:03:48;;;;;;;2.40;1.17;;;14.30;86.80;;;;;;5032083;28;20036;-17
2023/10/01 05:06:19;;;;;;;3.30;1.27;;;14.30;86.90;;;;;;5068934;28;20095;-17
2023/10/01 05:08:49;;;;;;;2.87;1.40;;;14.30;87.40;;;;;;5041651;28;20051;-17
2023/10/01 05:11:21;;;;;;;3.05;1.50;;;14.30;86.90;;;;;;5068658;28;20029;-17
2023/10/01 05:13:58;;;;;;;5.78;1.55;;;13.10;90.00;;;;;;5030219;28;20078;-17
2023/10/01 05:16:27;;;;;;;2.97;1.38;;;14.20;87.00;;;;;;5040878;28;20036;-17
2023/10/01 05:19:12;;;;;;;4.00;1.27;;;14.20;86.90;;;;;;5057943;28;20030;-17
2023/10/01 05:21:46;;;;;;;2.23;1.03;;;14.20;87.20;;;;;;5028669;28;20482;-17
2023/10/01 05:24:39;;;;;;;2.88;1.30;;;14.20;87.20;;;;;;5021687;28;20033;-17
2023/10/01 05:27:18;;;;;;;2.50;1.30;;;14.20;87.20;;;;;;5049185;28;20067;-17
2023/10/01 05:29:45;;;;;;;2.55;1.30;;;14.20;87.10;;;;;;5055343;28;20237;-17
2023/10/01 05:32:11;;;;;;;3.97;1.55;;;14.10;87.70;;;;;;5048788;28;20474;-17
2023/10/01 05:34:46;;;;;;;1.83;1.23;;;14.10;87.10;;;;;;5051985;28;20498;-21
2023/10/01 05:37:20;;;;;;;2.45;1.30;;;14.10;87.40;;;;;;5046805;28;20788;-17
2023/10/01 05:39:55;;;;;;;2.75;1.00;;;14.10;87.10;;;;;;5033184;28;20107;-17
2023/10/01 05:42:33;;;;;;;2.92;1.58;;;14.00;87.10;;;;;;5022183;28;22065;-17
2023/10/01 05:44:59;;;;;;;2.38;1.20;;;14.00;87.40;;;;;;5034844;28;20079;-17
2023/10/01 05:50:32;;;;;;;2.63;1.00;;;14.00;87.60;;;;;;4960610;28;20034;-17
2023/10/01 05:52:59;;;;;;;2.53;1.33;;;14.00;87.20;;;;;;4954876;28;20049;-17
2023/10/01 05:55:25;;;;;;;2.60;1.13;;;14.00;87.40;;;;;;4988406;28;20682;-17
2023/10/01 05:57:52;;;;;;;2.33;1.20;;;14.00;87.40;;;;;;5063345;28;20042;-17
2023/10/01 06:00:18;;;;;;;2.55;1.23;;;13.90;87.60;;;;;;5043718;28;20433;-17
2023/10/01 06:02:48;;;;;;;3.78;1.30;;;14.00;87.70;;;;;;5046667;28;20533;-17
2023/10/01 06:05:42;;;;;;;3.00;1.20;;;14.00;87.90;;;;;;5038634;28;20024;-17
2023/10/01 06:08:18;;;;;;;3.90;1.20;;;13.90;87.90;;;;;;5058570;28;20393;-17
2023/10/01 06:11:07;;;;;;;5.72;1.40;;;13.90;87.90;;;;;;5033755;28;20505;-17
2023/10/01 06:13:37;;;;;;;2.83;1.23;;;14.00;88.70;;;;;;5050245;28;20397;-17
2023/10/01 06:16:16;;;;;;;2.67;1.40;;;14.00;88.20;;;;;;5069184;28;20073;-17
2023/10/01 06:18:51;;;;;;;2.67;1.37;;;14.00;88.20;;;;;;5052048;28;20316;-17
2023/10/01 06:21:23;;;;;;;2.92;1.40;;;14.00;88.40;;;;;;5062314;28;20058;-17
2023/10/01 06:23:49;;;;;;;2.35;1.25;;;14.00;88.60;;;;;;5039688;28;20064;-17
2023/10/01 06:26:50;;;;;;;2.05;1.20;;;14.00;88.40;;;;;;5066482;28;20023;-17
2023/10/01 06:29:16;;;;;;;2.35;1.17;;;14.10;89.70;;;;;;5055769;28;20025;-17
2023/10/01 06:32:02;;;;;;;2.87;1.20;;;14.00;88.50;;;;;;5035623;28;20067;-17
2023/10/01 06:34:39;;;;;;;3.40;1.25;;;14.10;88.70;;;;;;5050511;28;20020;-17
2023/10/01 06:37:05;;;;;;;3.67;1.20;;;14.10;88.80;;;;;;5067202;28;20605;-17
2023/10/01 06:39:35;;;;;;;3.08;1.40;;;14.10;88.90;;;;;;5012447;28;20111;-17
2023/10/01 06:42:20;;;;;;;3.13;1.30;;;14.20;89.20;;;;;;5069688;28;20027;-17
2023/10/01 06:44:50;;;;;;;3.00;1.50;;;14.20;89.20;;;;;;5056942;28;20161;-17
2023/10/01 06:47:16;;;;;;;3.63;1.30;;;14.30;89.60;;;;;;5058647;28;20031;-16
2023/10/01 06:52:34;;;;;;;3.25;1.60;;;14.30;90.00;;;;;;5060898;28;20028;-16
2023/10/01 06:55:04;;;;;;;3.83;1.50;;;14.40;89.90;;;;;;5043366;28;20017;-17
2023/10/01 06:57:33;;;;;;;2.67;1.30;;;14.40;90.00;;;;;;5069697;28;20032;-17
2023/10/01 06:59:59;;;;;;;3.45;1.30;;;14.50;90.10;;;;;;5044698;28;20035;-17
2023/10/01 07:02:26;;;;;;;3.55;1.60;;;14.60;90.20;;;;;;5061837;28;20081;-17
2023/10/01 07:05:01;;;;;;;4.40;1.40;;;14.70;90.30;;;;;;5069792;28;20017;-17
2023/10/01 07:07:30;;;;;;;4.13;1.75;;;14.70;90.30;;;;;;5048863;28;20036;-17
2023/10/01 07:09:57;;;;;;;3.97;1.77;;;13.90;92.20;;;;;;5072310;28;20024;-17
2023/10/01 07:12:24;;;;;;;3.25;1.48;;;14.90;90.50;;;;;;5044428;28;20024;-17
2023/10/01 07:14:51;;;;;;;3.53;1.65;;;15.00;90.50;;;;;;5072093;28;20084;-17
2023/10/01 07:17:24;;;;;;;3.42;1.50;;;15.10;90.70;;;;;;5030668;28;20068;-17
2023/10/01 07:20:00;;;;;;;3.47;1.80;;;15.30;90.80;;;;;;5072652;28;20134;-17
2023/10/01 07:22:38;;;;;;;2.87;1.50;;;15.40;91.20;;;;;;5066035;28;20035;-17
2023/10/01 07:25:04;;;;;;;3.75;1.73;;;15.60;91.80;;;;;;5070205;28;20129;-17
2023/10/01 07:27:30;;;;;;;3.83;1.63;;;15.90;92.50;;;;;;5042713;28;20060;-17
2023/10/01 07:29:57;;;;;;;3.50;1.60;;;16.20;93.40;;;;;;5074369;28;20024;-17
2023/10/01 07:32:24;;;;;;;3.88;1.77;;;16.80;94.30;;;;;;5058385;28;20086;-17
2023/10/01 07:34:58;;;;;;;3.70;1.80;;;17.40;94.90;;;;;;5065900;28;20051;-17
2023/10/01 07:37:31;;;;;;;4.55;1.90;;;18.10;95.30;;;;;;5069243;28;20081;-17
2023/10/01 07:40:09;;;;;;;3.70;1.70;;;18.80;95.80;;;;;;5062201;28;20024;-17
2023/10/01 07:42:46;;;;;;;4.75;1.80;;;19.50;95.70;;;;;;5045758;28;20039;-17
2023/10/01 07:45:16;;;;;;;4.65;2.05;;;20.30;95.50;;;;;;5068707;28;20020;-18
2023/10/01 07:47:45;;;;;;;3.97;2.10;;;21.00;95.50;;;;;;5037944;28;20024;-17
2023/10/01 07:50:16;;;;;;;5.38;2.03;;;21.70;95.00;;;;;;5048992;28;20024;-17
2023/10/01 07:52:44;;;;;;;4.20;2.10;;;22.30;95.10;;;;;;5052054;28;20433;-18
2023/10/01 08:00:43;;;;;;;5.50;2.90;;;24.10;93.80;;;;;;5066268;28;20029;-17
2023/10/01 08:05:48;;;;;;;5.68;2.80;;;25.20;93.10;;;;;;5055286;28;20394;-17
2023/10/01 08:08:15;;;;;;;5.53;2.47;;;25.70;92.80;;;;;;5063817;28;20028;-17
2023/10/01 08:10:43;;;;;;;6.13;2.45;;;26.00;92.20;;;;;;5059714;28;20405;-17
2023/10/01 08:13:24;;;;;;;5.17;2.60;;;26.40;91.50;;;;;;5042194;28;20393;-17
2023/10/01 08:16:01;;;;;;;6.43;2.58;;;26.60;90.30;;;;;;5051612;28;20086;-17
2023/10/01 08:18:39;;;;;;;5.63;2.58;;;26.70;88.70;;;;;;5020700;28;21572;-17
2023/10/01 08:21:18;;;;;;;4.95;2.40;;;26.60;87.20;;;;;;5048271;28;20024;-17
2023/10/01 08:23:54;;;;;;;5.85;2.60;;;26.50;86.40;;;;;;5048705;28;20045;-17
2023/10/01 08:26:43;;;;;;;6.23;2.63;;;26.30;85.10;;;;;;5059983;28;20056;-17
2023/10/01 08:29:09;;;;;;;6.70;2.85;;;26.10;84.00;;;;;;5036418;28;20728;-17
2023/10/01 08:32:38;;;;;;;5.75;2.30;;;25.80;83.20;;;;;;5066483;28;20406;-17
2023/10/01 08:34:40;;;;;;;6.10;2.80;;;25.60;83.00;;;;;;5015483;28;20112;-17
2023/10/01 08:37:08;;;;;;;6.63;2.65;;;25.40;82.70;;;;;;5067307;28;20290;-17
2023/10/01 08:39:34;;;;;;;5.43;2.47;;;25.20;82.80;;;;;;5044470;28;20035;-17
2023/10/01 08:42:12;;;;;;;6.43;2.38;;;25.00;82.70;;;;;;5065371;28;20020;-17
2023/10/01 08:44:54;;;;;;;5.30;2.20;;;24.90;83.40;;;;;;5021553;28;20023;-17
2023/10/01 08:47:31;;;;;;;5.78;2.70;;;24.80;81.40;;;;;;5066341;28;20013;-17
2023/10/01 08:50:28;;;;;;;5.20;2.50;;;24.70;83.30;;;;;;5049697;28;20042;-16
2023/10/01 08:53:01;;;;;;;5.50;2.33;;;24.80;83.60;;;;;;5052343;28;20032;-17
2023/10/01 09:00:49;;;;;;;5.60;2.80;;;25.90;89.50;;;;;;5059173;28;20089;-17
2023/10/01 09:03:28;;;;;;;5.50;2.83;;;26.40;89.50;;;;;;5040279;28;20073;-17
2023/10/01 09:06:04;;;;;;;5.63;2.92;;;27.00;87.40;;;;;;5061045;28;20051;-17
2023/10/01 09:08:42;;;;;;;5.25;2.65;;;27.50;89.30;;;;;;5066780;28;20055;-17
2023/10/01 09:11:13;;;;;;;5.85;3.35;;;28.00;88.30;;;;;;5062367;28;20043;-17
2023/10/01 09:14:14;;;;;;;5.38;2.92;;;28.40;87.30;;;;;;5041982;28;20029;-17
2023/10/01 09:16:45;;;;;;;5.77;3.00;;;28.90;83.50;;;;;;5071513;28;20089;-18
2023/10/01 09:19:31;;;;;;;6.25;3.55;;;29.40;86.10;;;;;;5043188;28;20478;-18
2023/10/01 09:22:08;;;;;;;5.65;3.08;;;29.80;85.10;;;;;;5037538;28;20111;-18
2023/10/01 09:24:34;;;;;;;6.20;3.10;;;30.20;84.10;;;;;;5051963;28;20119;-18
2023/10/01 09:27:18;;;;;;;6.07;3.33;;;30.50;83.30;;;;;;5059641;28;20374;-18
2023/10/01 09:29:45;;;;;;;5.57;2.87;;;30.90;79.90;;;;;;5042378;28;20031;-18
2023/10/01 09:32:13;;;;;;;5.15;3.15;;;31.20;81.50;;;;;;5066229;28;20490;-18
2023/10/01 09:34:53;;;;;;;6.10;3.40;;;31.40;80.20;;;;;;5058220;28;20401;-18
2023/10/01 09:37:35;;;;;;;5.32;2.88;;;31.70;78.60;;;;;;5054717;28;20354;-18
2023/10/01 09:40:12;;;;;;;5.60;3.10;;;31.80;77.50;;;;;;5067425;28;20644;-18
2023/10/01 09:42:45;;;;;;;6.00;3.50;;;32.00;76.30;;;;;;5043493;28;20745;-18
2023/10/01 09:45:26;;;;;;;6.80;3.40;;;32.20;76.20;;;;;;5024966;28;20035;-18
2023/10/01 09:48:09;;;;;;;5.47;3.42;;;32.40;75.10;;;;;;5031158;28;20319;-18
2023/10/01 09:50:42;;;;;;;6.40;3.78;;;32.50;72.40;;;;;;5044633;28;20111;-18
2023/10/01 09:53:19;;;;;;;6.75;3.30;;;32.80;74.60;;;;;;5068599;28;20070;-18
2023/10/01 09:55:49;;;;;;;5.50;2.97;;;33.00;72.10;;;;;;5065929;28;20399;-18
2023/10/01 09:58:29;;;;;;;6.10;3.63;;;33.30;73.60;;;;;;5047667;28;20154;-18
2023/10/01 10:01:01;;;;;;;6.45;3.20;;;33.50;70.80;;;;;;5029743;28;20044;-18
2023/10/01 10:03:36;;;;;;;5.82;3.03;;;33.60;70.30;;;;;;5066401;28;20035;-18
2023/10/01 10:06:06;;;;;;;5.47;3.13;;;33.70;68.40;;;;;;5059087;28;20035;-18
2023/10/01 10:08:37;;;;;;;5.37;3.30;;;33.70;67.60;;;;;;5050689;28;20478;-18
2023/10/01 10:11:06;;;;;;;6.03;3.15;;;33.70;66.70;;;;;;5067912;28;20063;-18
2023/10/01 10:16:33;;;;;;;5.93;3.60;;;33.90;68.10;;;;;;1407626;26;20861;-81
2023/10/01 10:19:13;;;;;;;5.63;3.38;;;34.00;67.50;;;;;;5068293;28;20044;-83
2023/10/01 10:24:29;;;;;;;5.63;3.08;;;34.30;63.20;;;;;;5066992;28;20028;-82
2023/10/01 10:27:01;;;;;;;5.28;2.88;;;34.40;65.20;;;;;;5041850;28;20028;-82
2023/10/01 10:30:00;;;;;;;5.95;3.72;;;34.50;65.30;;;;;;5049170;28;20033;-85
2023/10/01 10:32:44;;;;;;;5.60;3.50;;;34.70;63.10;;;;;;5020289;28;20425;-84
2023/10/01 10:35:16;;;;;;;5.50;3.10;;;34.80;61.30;;;;;;5036195;28;20917;-82
2023/10/01 10:37:48;;;;;;;5.97;3.50;;;35.00;62.80;;;;;;5032187;28;20040;-84
2023/10/01 10:42:47;;;;;;;6.15;3.60;;;35.50;62.50;;;;;;5039265;28;20115;-85
2023/10/01 10:48:04;;;;;;;6.00;3.50;;;35.80;60.50;;;;;;5040010;28;20606;-83
2023/10/01 10:50:53;;;;;;;6.55;3.60;;;35.80;58.80;;;;;;5075875;28;20028;-87
2023/10/01 10:53:21;;;;;;;5.47;3.30;;;35.80;57.70;;;;;;5038726;28;20040;-83
2023/10/01 10:56:02;;;;;;;6.25;3.35;;;35.80;58.60;;;;;;5034704;28;20249;-83
2023/10/01 10:58:38;;;;;;;6.28;3.75;;;35.80;56.80;;;;;;5054949;28;20028;-85
2023/10/01 11:01:19;;;;;;;6.47;3.63;;;35.80;57.70;;;;;;5030637;28;20028;-84
2023/10/01 11:03:57;;;;;;;6.13;3.63;;;35.90;58.20;;;;;;5020790;28;20040;-84
2023/10/01 11:06:42;;;;;;;6.05;3.60;;;36.00;55.00;;;;;;5045174;28;20574;-88
2023/10/01 11:09:25;;;;;;;7.93;3.70;;;36.10;57.20;;;;;;5018560;28;20111;-84
2023/10/01 11:12:21;;;;;;;6.22;3.53;;;36.20;55.60;;;;;;5052664;28;21008;-85
2023/10/01 11:17:47;;;;;;;5.90;3.83;;;36.30;54.70;;;;;;5043879;28;20055;-83
2023/10/01 11:20:22;;;;;;;5.50;3.70;;;36.40;55.90;;;;;;5065288;28;20043;-84
2023/10/01 11:22:54;;;;;;;6.10;3.83;;;36.50;55.80;;;;;;5022750;28;20035;-88
2023/10/01 11:25:21;;;;;;;5.63;3.40;;;36.60;54.90;;;;;;5048543;28;20091;-84
2023/10/01 11:28:06;;;;;;;5.47;3.60;;;36.70;55.10;;;;;;5037775;28;20057;-84
2023/10/01 11:30:44;;;;;;;5.63;3.53;;;36.80;53.60;;;;;;5053380;28;20028;-85
2023/10/01 11:35:40;;;;;;;6.72;3.88;;;37.10;54.30;;;;;;5044623;28;20081;-85
2023/10/01 11:38:10;;;;;;;6.05;3.90;;;37.20;53.90;;;;;;5054400;28;21859;-83
2023/10/01 11:43:27;;;;;;;5.88;3.85;;;37.50;53.40;;;;;;5050412;28;20104;-83
2023/10/01 11:46:19;;;;;;;7.25;3.63;;;37.70;53.10;;;;;;5049268;28;20036;-85
2023/10/01 11:48:59;;;;;;;5.25;3.72;;;37.80;50.90;;;;;;5023477;28;20028;-83
2023/10/01 11:51:30;;;;;;;6.57;3.90;;;37.90;51.30;;;;;;5039411;28;20047;-86
2023/10/01 11:54:09;;;;;;;7.33;3.77;;;38.10;50.60;;;;;;5054427;28;20133;-86
2023/10/01 11:56:44;;;;;;;8.05;4.30;;;38.00;49.20;;;;;;5060818;28;20028;-86
2023/10/01 11:59:18;;;;;;;6.18;3.85;;;37.90;49.30;;;;;;5038927;28;20101;-86
2023/10/01 12:01:52;;;;;;;6.03;4.20;;;37.90;50.40;;;;;;5060367;28;20107;-84
2023/10/01 12:05:06;;;;;;;7.22;4.35;;;38.00;49.30;;;;;;5052089;28;20036;-85
2023/10/01 12:07:16;;;;;;;6.97;4.00;;;38.00;50.20;;;;;;5039098;28;20047;-84
2023/10/01 12:09:51;;;;;;;6.72;3.83;;;38.00;49.60;;;;;;5023284;28;20020;-83
2023/10/01 12:12:25;;;;;;;6.65;3.63;;;38.00;49.30;;;;;;5044033;28;20115;-85
2023/10/01 12:14:54;;;;;;;8.00;3.53;;;38.00;48.60;;;;;;5069584;28;20028;-80
2023/10/01 12:17:25;;;;;;;6.10;4.00;;;38.00;49.20;;;;;;5049829;28;20249;-82
2023/10/01 12:20:01;;;;;;;6.67;4.27;;;38.00;48.60;;;;;;5045242;28;20028;-81
2023/10/01 12:22:30;;;;;;;11.93;5.38;;;37.90;47.20;;;;;;5022730;28;20530;-80
2023/10/01 12:24:59;;;;;;;7.78;4.47;;;37.80;48.10;;;;;;5060660;28;21054;-83
2023/10/01 12:27:45;;;;;;;7.00;4.53;;;37.70;47.30;;;;;;5042142;28;20020;-82
2023/10/01 12:30:28;;;;;;;6.15;4.05;;;37.70;47.80;;;;;;5053786;28;20891;-82
2023/10/01 12:32:56;;;;;;;8.13;4.43;;;37.70;47.80;;;;;;5043772;28;20089;-82
2023/10/01 12:35:28;;;;;;;7.25;4.50;;;37.60;47.40;;;;;;5019060;28;20097;-82
2023/10/01 12:40:52;;;;;;;6.47;4.10;;;37.60;46.40;;;;;;5050215;28;20036;-83
2023/10/01 12:43:40;;;;;;;7.90;4.68;;;37.60;47.20;;;;;;5025141;28;20142;-81
2023/10/01 12:46:09;;;;;;;7.60;4.80;;;37.50;46.20;;;;;;5091939;22;20163;-14
2023/10/01 12:48:52;;;;;;;8.70;4.72;;;37.40;45.50;;;;;;5085217;27;20770;-15
2023/10/01 12:51:18;;;;;;;8.95;4.97;;;37.20;45.40;;;;;;5085497;27;20093;-15
2023/10/01 12:53:49;;;;;;;7.68;4.55;;;37.10;46.60;;;;;;5070859;27;20047;-14
2023/10/01 12:56:35;;;;;;;6.97;4.00;;;37.00;46.90;;;;;;5092674;27;20678;-15
2023/10/01 12:59:01;;;;;;;7.53;4.55;;;37.10;46.30;;;;;;5088700;27;20623;-15
2023/10/01 13:01:34;;;;;;;8.35;4.40;;;37.00;46.30;;;;;;5100540;27;20023;-15
2023/10/01 13:06:48;;;;;;;7.10;4.60;;;37.10;46.40;;;;;;5093095;27;20483;-16
2023/10/01 13:17:43;;;;;;;8.88;4.60;;;37.00;44.80;;;;;;5102950;27;20031;-15
2023/10/01 13:20:26;;;;;;;7.63;4.07;;;36.90;44.70;;;;;;5076850;27;20039;-15
2023/10/01 13:22:53;;;;;;;7.65;4.60;;;36.70;43.90;;;;;;5076441;27;20489;-15
2023/10/01 13:25:20;;;;;;;7.13;4.50;;;36.60;44.30;;;;;;5081939;27;20050;-15
2023/10/01 13:27:49;;;;;;;8.45;4.30;;;36.50;44.20;;;;;;5125684;22;20035;-14
2023/10/01 13:30:18;;;;;;;8.18;4.50;;;36.30;43.60;;;;;;5039010;28;20132;-15
2023/10/01 13:33:10;;;;;;;9.57;5.07;;;36.10;43.90;;;;;;5017509;28;20511;-14
2023/10/01 13:35:36;;;;;;;9.00;4.88;;;35.90;43.90;;;;;;5050982;28;20245;-15
2023/10/01 14:11:08;;;;;;;7.40;3.60;;;34.90;45.90;;;;;;5036977;28;20029;-15
2023/10/01 14:13:41;;;;;;;6.20;3.17;;;34.90;45.60;;;;;;5029009;28;20262;-14
2023/10/01 14:19:15;;;;;;;6.50;3.60;;;34.60;44.70;;;;;;5022224;28;20607;-15
2023/10/01 14:21:41;;;;;;;6.70;3.72;;;34.40;44.50;;;;;;5036540;28;20635;-14
2023/10/01 14:24:23;;;;;;;7.13;3.72;;;34.10;44.90;;;;;;5026613;28;20644;-15
2023/10/01 14:26:50;;;;;;;7.50;3.50;;;33.90;44.90;;;;;;5013005;28;20020;-15
2023/10/01 14:29:22;;;;;;;7.50;3.53;;;33.60;45.20;;;;;;5046071;28;20048;-15
2023/10/01 14:31:51;;;;;;;6.53;2.97;;;33.40;45.40;;;;;;5038250;28;20029;-15
2023/10/01 14:34:18;;;;;;;5.05;2.72;;;33.30;45.90;;;;;;5017776;28;20029;-15
2023/10/01 14:36:44;;;;;;;5.60;3.15;;;33.20;45.90;;;;;;5032239;28;20027;-15
2023/10/01 14:39:12;;;;;;;6.37;3.00;;;33.00;46.20;;;;;;5024866;28;20040;-15
2023/10/01 14:41:42;;;;;;;6.63;3.30;;;33.00;46.50;;;;;;5039027;28;20036;-15
2023/10/01 14:44:09;;;;;;;7.55;3.50;;;32.90;46.40;;;;;;5046832;28;20041;-16
2023/10/01 14:46:38;;;;;;;6.25;3.13;;;32.80;46.40;;;;;;5032185;28;20112;-15
2023/10/01 14:49:04;;;;;;;7.80;3.38;;;32.70;46.70;;;;;;5043226;28;20028;-15
2023/10/01 14:51:32;;;;;;;6.67;3.00;;;32.60;47.10;;;;;;5018879;28;20045;-16
2023/10/01 14:53:58;;;;;;;6.43;3.30;;;32.40;47.20;;;;;;5008235;28;20565;-15
2023/10/01 14:56:34;;;;;;;5.82;2.60;;;32.30;47.50;;;;;;5007236;28;20131;-15
2023/10/01 14:59:04;;;;;;;5.65;2.80;;;32.30;47.50;;;;;;5033459;28;20777;-15
2023/10/01 15:01:37;;;;;;;6.43;2.87;;;32.30;47.80;;;;;;5031500;28;20056;-15
2023/10/01 15:04:23;;;;;;;6.13;2.95;;;32.20;48.20;;;;;;5012733;28;20465;-15